Time;durP1;ratioP1;P1;durP2;ratioP2;P2;SDS_P1;SDS_P2;PMS_P1;PMS_P2;Temp;Humidity;BMP_temperature;BMP_pressure;BME280_temperature;BME280_humidity;BME280_pressure;Samples;Min_cycle;Max_cycle;Signal;HPM_P1;HPM_P2
2022/02/22 00:00:28;;;;;;;8.13;1.35;;;;;;;4.60;72.41;100572.13;4952350;28;20484;-46
2022/02/22 00:02:54;;;;;;;13.85;2.22;;;;;;;4.63;72.47;100571.38;4962293;28;20069;-44
2022/02/22 00:05:24;;;;;;;11.43;1.67;;;;;;;4.66;72.17;100563.75;4950804;28;20098;-51
2022/02/22 00:07:50;;;;;;;9.55;1.65;;;;;;;4.67;72.53;100556.94;4958694;28;20062;-54
2022/02/22 00:10:17;;;;;;;11.77;3.50;;;;;;;4.68;72.50;100553.53;4951787;28;20550;-51
2022/02/22 00:12:44;;;;;;;13.80;2.10;;;;;;;4.67;72.27;100557.81;4966694;28;20043;-52
2022/02/22 00:15:11;;;;;;;12.02;1.85;;;;;;;4.66;72.31;100555.22;4952536;28;20062;-47
2022/02/22 00:17:39;;;;;;;12.32;2.25;;;;;;;4.66;72.35;100568.03;4965289;28;20101;-49
2022/02/22 00:20:09;;;;;;;13.02;2.25;;;;;;;4.62;72.79;100572.19;4954634;28;20047;-52
2022/02/22 00:22:38;;;;;;;9.98;3.13;;;;;;;4.59;71.95;100575.53;4953894;28;20063;-50
2022/02/22 00:25:06;;;;;;;19.05;2.05;;;;;;;4.54;72.41;100577.09;4952040;28;20204;-48
2022/02/22 00:27:33;;;;;;;10.68;1.67;;;;;;;4.48;72.63;100566.63;4956067;28;20117;-52
2022/02/22 00:29:59;;;;;;;6.25;1.23;;;;;;;4.46;72.17;100564.03;4951747;28;20513;-50
2022/02/22 00:32:26;;;;;;;12.60;2.47;;;;;;;4.41;72.23;100562.13;4954730;28;20106;-48
2022/02/22 00:34:53;;;;;;;10.60;2.08;;;;;;;4.37;72.39;100567.22;4948537;28;20059;-52
2022/02/22 00:37:19;;;;;;;7.63;1.15;;;;;;;4.35;72.38;100567.94;4949877;28;20051;-47
2022/02/22 00:39:48;;;;;;;10.63;1.98;;;;;;;4.34;72.53;100564.53;4949971;28;20051;-51
2022/02/22 00:42:15;;;;;;;14.80;2.00;;;;;;;4.33;72.38;100562.78;4947924;28;20558;-60
2022/02/22 00:44:41;;;;;;;10.23;1.88;;;;;;;4.32;72.66;100561.03;4951381;28;20413;-47
2022/02/22 00:47:08;;;;;;;10.85;1.25;;;;;;;4.31;72.95;100549.03;4947991;28;20055;-53
2022/02/22 00:49:34;;;;;;;11.55;1.90;;;;;;;4.32;72.69;100545.66;4965126;28;20054;-52
2022/02/22 00:52:02;;;;;;;11.98;1.88;;;;;;;4.35;72.39;100543.19;4962489;28;20054;-50
2022/02/22 00:54:28;;;;;;;10.70;2.25;;;;;;;4.37;72.53;100535.53;4964294;28;20525;-49
2022/02/22 00:56:55;;;;;;;10.05;2.03;;;;;;;4.39;72.76;100533.88;4962596;28;20054;-48
2022/02/22 00:59:22;;;;;;;12.57;1.63;;;;;;;4.42;72.81;100522.88;4959680;28;20062;-51
2022/02/22 01:01:49;;;;;;;17.38;2.25;;;;;;;4.43;72.69;100527.16;4961307;28;20058;-50
2022/02/22 01:04:15;;;;;;;16.15;2.10;;;;;;;4.43;72.42;100528.00;4960909;28;20069;-50
2022/02/22 01:06:42;;;;;;;7.63;1.70;;;;;;;4.43;72.17;100520.31;4962950;28;20055;-49
2022/02/22 01:09:09;;;;;;;12.75;1.52;;;;;;;4.42;72.54;100517.75;4959683;28;20070;-47
2022/02/22 01:11:36;;;;;;;21.40;1.83;;;;;;;4.41;72.34;100518.53;4962723;28;20106;-50
2022/02/22 01:14:03;;;;;;;10.23;1.10;;;;;;;4.38;72.44;100519.31;4959849;28;20102;-45
2022/02/22 01:16:29;;;;;;;9.15;1.20;;;;;;;4.34;71.92;100518.38;4961902;28;20542;-47
2022/02/22 01:18:59;;;;;;;9.95;1.65;;;;;;;4.30;72.90;100516.53;4959285;28;20054;-49
2022/02/22 01:21:26;;;;;;;10.48;1.70;;;;;;;4.27;72.58;100506.19;4960649;28;20682;-53
2022/02/22 01:23:52;;;;;;;13.98;1.85;;;;;;;4.24;72.39;100508.66;4964816;28;20056;-46
2022/02/22 01:26:19;;;;;;;16.02;2.22;;;;;;;4.20;72.72;100499.13;4968742;28;20129;-49
2022/02/22 01:28:46;;;;;;;10.75;1.42;;;;;;;4.17;72.43;100505.03;4965397;28;20059;-45
2022/02/22 01:31:13;;;;;;;10.18;1.38;;;;;;;4.18;72.62;100513.56;4960695;28;20387;-51
2022/02/22 01:33:40;;;;;;;10.70;1.30;;;;;;;4.18;72.86;100500.75;4970778;28;20120;-51
2022/02/22 01:36:07;;;;;;;13.80;1.52;;;;;;;4.20;72.55;100499.13;4967662;28;20043;-48
2022/02/22 01:38:34;;;;;;;9.68;1.77;;;;;;;4.21;72.36;100495.72;4975633;28;20108;-46
2022/02/22 01:41:00;;;;;;;9.45;1.15;;;;;;;4.21;72.76;100490.59;4957429;28;20055;-49
2022/02/22 01:43:27;;;;;;;9.48;1.10;;;;;;;4.22;73.13;100484.66;4952026;28;20101;-46
2022/02/22 01:45:54;;;;;;;10.45;1.30;;;;;;;4.25;72.66;100482.16;4952167;28;20114;-45
2022/02/22 01:48:20;;;;;;;11.60;1.42;;;;;;;4.27;72.67;100470.28;4955015;28;20051;-50
2022/02/22 01:50:47;;;;;;;12.77;1.88;;;;;;;4.29;72.61;100463.47;4953836;28;20055;-51
2022/02/22 01:53:15;;;;;;;10.50;1.45;;;;;;;4.31;72.32;100451.59;4948300;28;20042;-46
2022/02/22 01:55:43;;;;;;;13.43;1.38;;;;;;;4.31;72.66;100446.47;4956564;28;20531;-45
2022/02/22 01:58:10;;;;;;;16.10;1.48;;;;;;;4.29;72.43;100445.53;4959837;28;20055;-51
2022/02/22 02:00:36;;;;;;;13.27;2.75;;;;;;;4.30;72.98;100455.00;4952927;28;20051;-50
2022/02/22 02:03:03;;;;;;;11.05;2.25;;;;;;;4.29;72.46;100442.97;4946997;28;20079;-49
2022/02/22 02:05:30;;;;;;;8.05;1.63;;;;;;;4.33;72.62;100439.66;4952547;28;20058;-47
2022/02/22 02:07:56;;;;;;;9.27;1.60;;;;;;;4.34;72.37;100425.16;4951150;28;20080;-48
2022/02/22 02:10:23;;;;;;;15.15;1.60;;;;;;;4.37;72.49;100425.25;4959339;28;20106;-50
2022/02/22 02:12:49;;;;;;;12.25;1.73;;;;;;;4.37;72.66;100415.88;4955178;28;20482;-51
2022/02/22 02:15:16;;;;;;;9.90;1.88;;;;;;;4.41;72.26;100410.81;4954625;28;20047;-50
2022/02/22 02:17:43;;;;;;;19.23;2.30;;;;;;;4.43;72.32;100406.59;4956565;28;20097;-44
2022/02/22 02:20:11;;;;;;;8.07;1.35;;;;;;;4.42;72.78;100392.06;4949799;28;20122;-48
2022/02/22 02:22:39;;;;;;;16.02;1.42;;;;;;;4.44;72.54;100393.84;4953098;28;21787;-47
2022/02/22 02:25:06;;;;;;;15.30;2.15;;;;;;;4.44;72.68;100390.38;4949964;28;20051;-49
2022/02/22 02:27:33;;;;;;;19.00;2.10;;;;;;;4.46;72.87;100378.50;4962438;28;20051;-47
2022/02/22 02:30:00;;;;;;;15.45;1.83;;;;;;;4.50;72.40;100377.75;4949704;28;20727;-49
2022/02/22 02:32:27;;;;;;;14.68;2.00;;;;;;;4.53;71.89;100375.28;4953626;28;20110;-49
2022/02/22 02:34:54;;;;;;;14.90;1.38;;;;;;;4.55;72.35;100372.72;4968679;28;20055;-52
2022/02/22 02:37:20;;;;;;;14.00;2.35;;;;;;;4.57;72.27;100361.69;4948215;28;20046;-46
2022/02/22 02:39:47;;;;;;;11.43;2.85;;;;;;;4.60;72.12;100348.91;4948281;28;20535;-52
2022/02/22 02:42:16;;;;;;;15.98;2.72;;;;;;;4.63;72.37;100346.44;4948023;28;20106;-48
2022/02/22 02:44:44;;;;;;;20.02;2.65;;;;;;;4.67;72.14;100336.25;4954328;28;20113;-52
2022/02/22 02:47:11;;;;;;;23.27;2.22;;;;;;;4.70;72.86;100337.19;4952291;28;20554;-48
2022/02/22 02:49:39;;;;;;;12.85;2.45;;;;;;;4.73;72.06;100331.31;4964741;28;20065;-51
2022/02/22 02:52:06;;;;;;;16.63;2.17;;;;;;;4.75;71.93;100335.66;4956330;28;20059;-48
2022/02/22 02:54:34;;;;;;;13.45;2.10;;;;;;;4.77;72.30;100328.00;4968227;28;20059;-49
2022/02/22 02:57:02;;;;;;;10.63;1.50;;;;;;;4.81;72.44;100322.09;4963080;28;20054;-49
2022/02/22 02:59:28;;;;;;;13.73;2.53;;;;;;;4.83;72.57;100320.41;4969270;28;20051;-51
2022/02/22 03:01:55;;;;;;;12.88;2.20;;;;;;;4.84;72.38;100319.63;4957927;28;20051;-48
2022/02/22 03:04:22;;;;;;;13.82;2.22;;;;;;;4.85;72.50;100311.09;4945877;28;20059;-49
2022/02/22 03:06:48;;;;;;;14.23;2.15;;;;;;;4.85;73.01;100305.94;4944157;28;20216;-49
2022/02/22 03:09:15;;;;;;;22.02;2.53;;;;;;;4.86;72.83;100294.84;4943764;28;20044;-46
2022/02/22 03:11:42;;;;;;;17.98;3.22;;;;;;;4.88;72.92;100289.75;4954298;28;20102;-51
2022/02/22 03:14:08;;;;;;;14.23;2.17;;;;;;;4.91;73.38;100291.50;4947572;28;20043;-52
2022/02/22 03:16:37;;;;;;;17.00;2.90;;;;;;;4.91;73.33;100283.81;4953512;28;20051;-50
2022/02/22 03:19:04;;;;;;;16.95;2.80;;;;;;;4.91;72.96;100266.72;4950498;28;20109;-48
2022/02/22 03:21:32;;;;;;;13.45;2.50;;;;;;;4.93;72.94;100262.47;4952313;28;20478;-48
2022/02/22 03:24:00;;;;;;;13.40;2.75;;;;;;;4.94;72.89;100261.69;4950918;28;20055;-49
2022/02/22 03:26:27;;;;;;;23.90;3.45;;;;;;;4.96;73.51;100251.44;4951514;28;20494;-47
2022/02/22 03:28:55;;;;;;;17.02;3.10;;;;;;;4.99;73.41;100260.06;4947877;28;20062;-54
2022/02/22 03:31:22;;;;;;;17.27;2.30;;;;;;;5.01;73.31;100262.69;4956055;28;20125;-50
2022/02/22 03:33:52;;;;;;;14.55;1.63;;;;;;;5.04;73.30;100255.06;4955909;28;20056;-53
2022/02/22 03:36:20;;;;;;;;;;;;;;;5.02;74.17;100249.00;4950224;28;20046;-52
2022/02/22 03:38:46;;;;;;;10.43;1.63;;;;;;;5.10;73.20;100238.94;4959542;28;20004;-49
2022/02/22 03:41:13;;;;;;;16.73;2.13;;;;;;;5.12;73.06;100233.00;4951537;28;20120;-49
2022/02/22 03:43:39;;;;;;;17.75;2.38;;;;;;;5.17;73.92;100229.66;4961855;28;20638;-52
2022/02/22 03:46:06;;;;;;;22.48;2.10;;;;;;;5.20;73.37;100222.03;4950213;28;20121;-51
2022/02/22 03:48:33;;;;;;;16.95;2.05;;;;;;;5.22;73.59;100217.78;4952097;28;21337;-47
2022/02/22 03:51:00;;;;;;;18.77;2.35;;;;;;;5.26;74.06;100219.56;4958269;28;20054;-52
2022/02/22 03:53:26;;;;;;;17.52;1.85;;;;;;;5.28;74.33;100212.78;4955736;28;20047;-50
2022/02/22 03:55:53;;;;;;;20.33;2.40;;;;;;;5.31;73.55;100201.69;4960133;28;20055;-49
2022/02/22 03:58:19;;;;;;;16.38;2.72;;;;;;;5.35;74.44;100200.94;4951257;28;20054;-45
2022/02/22 04:00:46;;;;;;;17.40;2.00;;;;;;;5.36;74.03;100194.94;4946243;28;20766;-54
2022/02/22 04:03:13;;;;;;;12.02;1.75;;;;;;;5.38;74.93;100168.44;4955707;28;20047;-48
2022/02/22 04:05:42;;;;;;;8.90;2.28;;;;;;;5.43;74.29;100185.69;4954446;28;20640;-50
2022/02/22 04:08:09;;;;;;;24.95;1.83;;;;;;;5.44;75.05;100182.28;4950839;28;20402;-50
2022/02/22 04:10:35;;;;;;;14.95;1.83;;;;;;;5.47;74.64;100178.06;4953691;28;20055;-48
2022/02/22 04:13:02;;;;;;;13.88;2.03;;;;;;;5.51;75.00;100186.72;4955620;28;20043;-52
2022/02/22 04:15:29;;;;;;;14.63;2.60;;;;;;;5.54;74.88;100168.75;4951979;28;20401;-49
2022/02/22 04:17:55;;;;;;;15.68;2.15;;;;;;;5.59;74.74;100172.31;4952576;28;20439;-50
2022/02/22 04:20:22;;;;;;;18.05;2.28;;;;;;;5.64;74.46;100164.69;4952626;28;20078;-51
2022/02/22 04:22:49;;;;;;;18.45;2.13;;;;;;;5.65;75.76;100153.56;4953425;28;20126;-49
2022/02/22 04:25:15;;;;;;;15.48;2.20;;;;;;;5.66;75.11;100151.03;4950471;28;20067;-46
2022/02/22 04:27:42;;;;;;;11.85;1.75;;;;;;;5.66;76.25;100158.75;4954232;28;20043;-47
2022/02/22 04:30:10;;;;;;;11.40;3.13;;;;;;;5.72;76.13;100157.13;4954739;28;20101;-50
2022/02/22 04:32:37;;;;;;;12.25;2.63;;;;;;;5.74;75.71;100155.47;4965672;28;20121;-48
2022/02/22 04:35:05;;;;;;;14.05;2.55;;;;;;;5.78;76.62;100152.94;4959648;28;20058;-52
2022/02/22 04:37:31;;;;;;;15.93;2.13;;;;;;;5.82;76.07;100156.47;4956584;28;20183;-46
2022/02/22 04:39:58;;;;;;;11.15;1.55;;;;;;;5.86;77.03;100159.94;4955764;28;20050;-51
2022/02/22 04:42:24;;;;;;;24.58;4.35;;;;;;;5.89;77.49;100150.59;4947123;28;20862;-49
2022/02/22 04:44:53;;;;;;;17.55;2.45;;;;;;;5.93;77.16;100146.38;4950229;28;20062;-46
2022/02/22 04:47:20;;;;;;;14.32;2.38;;;;;;;5.97;76.21;100137.00;4954130;28;20132;-50
2022/02/22 04:49:46;;;;;;;10.60;2.20;;;;;;;6.00;77.34;100131.91;4957922;28;20112;-50
2022/02/22 04:52:13;;;;;;;25.33;2.70;;;;;;;6.03;77.93;100139.69;4953382;28;20047;-53
2022/02/22 04:54:40;;;;;;;12.70;2.00;;;;;;;6.07;77.59;100133.78;4952393;28;20133;-53
2022/02/22 04:57:06;;;;;;;8.82;2.28;;;;;;;6.08;77.61;100114.94;4960553;28;20059;-52
2022/02/22 04:59:34;;;;;;;12.15;1.58;;;;;;;6.11;77.52;100115.00;4949674;28;20121;-48
2022/02/22 05:02:01;;;;;;;22.88;2.58;;;;;;;6.16;77.13;100115.94;4956513;28;20046;-47
2022/02/22 05:04:28;;;;;;;11.20;1.65;;;;;;;6.21;76.68;100110.00;4953782;28;20414;-49
2022/02/22 05:06:55;;;;;;;12.00;2.10;;;;;;;6.24;78.00;100104.91;4956383;28;20148;-52
2022/02/22 05:09:21;;;;;;;10.77;1.73;;;;;;;6.27;78.89;100094.66;4953824;28;20070;-51
2022/02/22 05:11:48;;;;;;;16.73;2.72;;;;;;;6.32;78.79;100099.88;4954127;28;20138;-48
2022/02/22 05:14:14;;;;;;;9.43;1.65;;;;;;;6.36;78.80;100094.81;4957086;28;20112;-52
2022/02/22 05:16:41;;;;;;;10.60;2.05;;;;;;;6.39;77.93;100092.28;4951457;28;20074;-50
2022/02/22 05:19:08;;;;;;;9.18;1.85;;;;;;;6.43;78.53;100081.19;4959700;28;20055;-49
2022/02/22 05:21:35;;;;;;;15.63;2.50;;;;;;;6.48;79.55;100076.09;4951136;28;20435;-49
2022/02/22 05:24:05;;;;;;;9.98;1.63;;;;;;;6.51;80.15;100078.72;4947894;28;20063;-49
2022/02/22 05:26:32;;;;;;;7.57;1.35;;;;;;;6.56;79.51;100079.66;4958571;28;20051;-52
2022/02/22 05:28:59;;;;;;;13.82;1.88;;;;;;;6.62;79.91;100076.31;4954167;28;20047;-53
2022/02/22 05:31:26;;;;;;;8.32;2.20;;;;;;;6.65;79.24;100066.06;4951247;28;20050;-49
2022/02/22 05:33:52;;;;;;;5.85;1.17;;;;;;;6.71;79.71;100064.41;4949293;28;20059;-55
2022/02/22 05:36:20;;;;;;;9.15;1.52;;;;;;;6.75;79.88;100053.31;4969452;28;20074;-47
2022/02/22 05:38:47;;;;;;;9.35;1.05;;;;;;;6.79;79.49;100057.66;4944338;28;20114;-48
2022/02/22 05:41:17;;;;;;;9.10;1.38;;;;;;;6.80;78.75;100049.09;4954962;28;20113;-51
2022/02/22 05:43:45;;;;;;;6.05;1.52;;;;;;;6.86;80.29;100049.16;4951896;28;20061;-50
2022/02/22 05:46:13;;;;;;;6.15;1.30;;;;;;;6.88;80.27;100036.31;4954018;28;20522;-51
2022/02/22 05:48:40;;;;;;;5.70;1.63;;;;;;;6.90;79.09;100027.78;4967304;28;20133;-53
2022/02/22 05:51:08;;;;;;;6.70;1.40;;;;;;;6.93;78.62;100025.22;4963832;28;20050;-51
2022/02/22 05:53:34;;;;;;;6.03;1.20;;;;;;;6.98;79.97;100021.81;4968593;28;20043;-54
2022/02/22 05:56:01;;;;;;;11.60;1.67;;;;;;;7.00;79.18;100015.00;4960831;28;20079;-52
2022/02/22 05:58:28;;;;;;;9.70;1.50;;;;;;;7.03;78.56;100015.03;4957722;28;20055;-50
2022/02/22 06:00:54;;;;;;;7.80;2.03;;;;;;;7.04;80.24;100012.47;4949969;28;20520;-49
2022/02/22 06:03:21;;;;;;;5.70;1.65;;;;;;;7.07;79.09;99996.19;4944071;28;20074;-54
2022/02/22 06:05:48;;;;;;;6.45;1.05;;;;;;;7.09;80.38;99979.03;4947468;28;20113;-48
2022/02/22 06:08:16;;;;;;;4.10;1.15;;;;;;;7.13;79.55;99980.78;4962388;28;20047;-55
2022/02/22 06:10:42;;;;;;;8.98;1.63;;;;;;;7.14;79.27;99976.50;4952392;28;20090;-56
2022/02/22 06:13:09;;;;;;;8.23;1.45;;;;;;;7.16;80.33;99970.50;4948723;28;20094;-49
2022/02/22 06:15:36;;;;;;;3.28;0.85;;;;;;;7.20;80.12;99972.28;4956642;28;20134;-52
2022/02/22 06:18:03;;;;;;;4.53;0.60;;;;;;;7.22;79.98;99968.88;4948393;28;20090;-50
2022/02/22 06:20:32;;;;;;;4.93;0.98;;;;;;;7.25;78.94;99964.59;4948617;28;20058;-53
2022/02/22 06:22:59;;;;;;;11.50;1.08;;;;;;;7.28;79.27;99959.47;4952182;28;20049;-53
2022/02/22 06:25:26;;;;;;;5.57;1.30;;;;;;;7.30;78.69;99951.78;4942497;28;20051;-52
2022/02/22 06:27:54;;;;;;;4.25;1.17;;;;;;;7.30;79.29;99942.31;4950565;28;20062;-52
2022/02/22 06:30:24;;;;;;;5.45;0.75;;;;;;;7.34;79.07;99938.06;4948182;28;20055;-53
2022/02/22 06:32:51;;;;;;;6.60;1.58;;;;;;;7.36;79.33;99931.19;4955381;28;20114;-51
2022/02/22 06:35:19;;;;;;;5.22;1.25;;;;;;;7.37;79.23;99921.75;4962631;28;20106;-49
2022/02/22 06:37:45;;;;;;;6.30;1.40;;;;;;;7.38;80.07;99908.91;4964742;28;20059;-47
2022/02/22 06:40:12;;;;;;;7.63;1.63;;;;;;;7.41;78.93;99902.91;4949061;28;20054;-52
2022/02/22 06:42:39;;;;;;;7.63;0.82;;;;;;;7.42;79.12;99897.75;4970361;28;20059;-50
2022/02/22 06:45:07;;;;;;;9.68;1.17;;;;;;;7.43;79.13;99888.31;4970993;28;20287;-48
2022/02/22 06:47:37;;;;;;;14.80;2.33;;;;;;;7.45;79.74;99879.75;4962912;28;20050;-54
2022/02/22 06:50:06;;;;;;;5.97;1.33;;;;;;;7.49;80.02;99874.63;4965108;28;20054;-48
2022/02/22 06:52:32;;;;;;;5.75;1.02;;;;;;;7.51;79.61;99865.16;4963571;28;20519;-49
2022/02/22 06:54:59;;;;;;;10.80;1.48;;;;;;;7.54;78.90;99853.16;4953225;28;20126;-51
2022/02/22 06:57:26;;;;;;;8.25;1.50;;;;;;;7.57;79.13;99852.34;4947553;28;20502;-48
2022/02/22 06:59:52;;;;;;;9.50;1.25;;;;;;;7.58;78.77;99851.47;4945130;28;20055;-52
2022/02/22 07:02:19;;;;;;;8.55;2.13;;;;;;;7.61;80.00;99859.22;4947771;28;20539;-47
2022/02/22 07:04:45;;;;;;;8.30;1.15;;;;;;;7.66;80.08;99862.69;4947415;28;20055;-50
2022/02/22 07:07:12;;;;;;;13.23;2.67;;;;;;;7.68;79.62;99866.16;4952813;28;20096;-47
2022/02/22 07:09:39;;;;;;;6.72;1.92;;;;;;;7.72;79.30;99867.03;4964051;28;20051;-48
2022/02/22 07:12:06;;;;;;;10.25;2.13;;;;;;;7.75;78.69;99855.88;4974960;28;20828;-52
2022/02/22 07:14:34;;;;;;;11.65;1.27;;;;;;;7.76;78.45;99858.44;4969832;28;20133;-53
2022/02/22 07:17:00;;;;;;;5.45;1.17;;;;;;;7.78;79.48;99845.56;4967931;28;20110;-51
2022/02/22 07:19:27;;;;;;;16.50;1.80;;;;;;;7.80;79.39;99849.03;4963026;28;20043;-53
2022/02/22 07:21:54;;;;;;;8.68;1.42;;;;;;;7.80;78.61;99856.78;4975956;28;20058;-48
2022/02/22 07:24:20;;;;;;;7.00;1.50;;;;;;;7.82;78.11;99860.22;4969802;28;20074;-54
2022/02/22 07:26:47;;;;;;;9.98;2.10;;;;;;;7.84;78.73;99858.50;4971380;28;20047;-48
2022/02/22 07:29:13;;;;;;;11.63;1.73;;;;;;;7.85;78.73;99860.22;4969907;28;20451;-45
2022/02/22 07:31:40;;;;;;;13.02;2.30;;;;;;;7.85;78.06;99849.91;4967121;28;20070;-52
2022/02/22 07:34:07;;;;;;;15.05;1.90;;;;;;;7.84;78.27;99846.47;4962768;28;20142;-49
2022/02/22 07:36:40;;;;;;;10.77;1.77;;;;;;;7.86;78.36;99849.06;4966107;28;20106;-51
2022/02/22 07:39:06;;;;;;;9.60;1.77;;;;;;;7.87;77.80;99827.56;4976177;28;20046;-54
2022/02/22 07:41:33;;;;;;;12.52;1.85;;;;;;;7.87;78.24;99808.66;4968295;28;20571;-54
2022/02/22 07:44:00;;;;;;;17.10;2.05;;;;;;;7.87;77.78;99809.50;4973484;28;20392;-49
2022/02/22 07:46:26;;;;;;;13.65;2.22;;;;;;;7.89;78.78;99807.81;4963664;28;20051;-56
2022/02/22 07:48:53;;;;;;;10.07;1.77;;;;;;;7.89;77.65;99805.22;4975070;28;20389;-51
2022/02/22 07:51:20;;;;;;;9.65;1.45;;;;;;;7.90;77.52;99806.94;4970075;28;20515;-55
2022/02/22 07:53:47;;;;;;;6.72;1.08;;;;;;;7.91;78.34;99800.94;4972764;28;20051;-51
2022/02/22 07:56:15;;;;;;;8.98;1.70;;;;;;;7.95;77.09;99782.06;4961118;28;20047;-52
2022/02/22 07:58:42;;;;;;;13.93;1.60;;;;;;;7.95;77.99;99771.75;4969878;28;20502;-49
2022/02/22 08:01:11;;;;;;;8.35;1.80;;;;;;;8.00;76.93;99783.78;4966273;28;20054;-53
2022/02/22 08:03:44;;;;;;;12.05;1.92;;;;;;;8.02;76.79;99792.38;4966512;28;20149;-50
2022/02/22 08:06:12;;;;;;;12.77;1.63;;;;;;;8.07;77.66;99782.97;4967164;28;20046;-54
2022/02/22 08:08:40;;;;;;;9.35;1.25;;;;;;;8.12;77.51;99789.00;4967702;28;20660;-52
2022/02/22 08:11:07;;;;;;;11.77;2.25;;;;;;;8.16;76.62;99790.72;4974784;28;20050;-46
2022/02/22 08:13:34;;;;;;;12.88;2.95;;;;;;;8.18;76.73;99804.47;4964726;28;20058;-53
2022/02/22 08:16:00;;;;;;;21.23;7.20;;;;;;;8.25;76.14;99778.69;4970851;28;20062;-48
2022/02/22 08:18:27;;;;;;;14.52;3.55;;;;;;;8.30;76.37;99787.28;4967000;28;20058;-51
2022/02/22 08:20:54;;;;;;;18.80;6.35;;;;;;;8.38;75.89;99775.31;4966442;28;20668;-54
2022/02/22 08:23:21;;;;;;;13.93;2.65;;;;;;;8.44;75.12;99770.13;4969522;28;20114;-47
2022/02/22 08:25:48;;;;;;;11.60;1.80;;;;;;;8.53;74.73;99758.09;4968762;28;20050;-51
2022/02/22 08:28:14;;;;;;;9.82;1.85;;;;;;;8.62;74.08;99737.50;4966006;28;20043;-53
2022/02/22 08:30:42;;;;;;;15.48;2.10;;;;;;;8.66;74.27;99736.63;4974271;28;20045;-51
2022/02/22 08:33:09;;;;;;;20.65;2.13;;;;;;;8.73;73.08;99735.78;4962080;28;20054;-51
2022/02/22 08:35:37;;;;;;;8.93;2.33;;;;;;;8.76;74.36;99728.88;4975488;28;20042;-52
2022/02/22 08:38:04;;;;;;;16.88;2.65;;;;;;;8.81;72.99;99732.34;4966449;28;20058;-49
2022/02/22 08:40:30;;;;;;;14.05;2.25;;;;;;;8.86;73.73;99730.59;4982334;28;20554;-52
2022/02/22 08:42:58;;;;;;;14.18;1.95;;;;;;;8.91;72.95;99739.19;4968349;28;20042;-48
2022/02/22 08:45:25;;;;;;;14.32;3.50;;;;;;;9.14;73.01;99735.72;4972371;28;20049;-54
2022/02/22 08:47:53;;;;;;;17.48;3.90;;;;;;;9.37;72.81;99747.72;4964988;28;20062;-51
2022/02/22 08:50:21;;;;;;;14.77;2.03;;;;;;;10.05;71.44;99748.31;4973792;28;20377;-55
2022/02/22 08:52:48;;;;;;;11.70;2.55;;;;;;;10.41;70.19;99765.34;4968298;28;20050;-53
2022/02/22 08:55:15;;;;;;;13.50;2.13;;;;;;;11.04;69.69;99755.41;4973613;28;20097;-52
2022/02/22 08:57:42;;;;;;;14.68;2.53;;;;;;;11.86;69.39;99749.31;4971613;28;20051;-48
2022/02/22 09:00:10;;;;;;;7.93;1.95;;;;;;;12.60;65.91;99743.09;4971341;28;20154;-55
2022/02/22 09:02:39;;;;;;;11.60;2.33;;;;;;;13.23;63.17;99744.63;4958066;28;20058;-55
2022/02/22 09:05:08;;;;;;;12.05;2.72;;;;;;;13.72;62.97;99728.97;4951234;28;20542;-52
2022/02/22 09:07:35;;;;;;;13.02;2.78;;;;;;;14.27;62.01;99687.84;4969976;28;20057;-51
2022/02/22 09:10:05;;;;;;;17.52;2.15;;;;;;;14.76;59.63;99671.84;4965906;28;20054;-56
2022/02/22 09:12:33;;;;;;;16.75;3.13;;;;;;;15.30;58.37;99671.31;4977359;28;20050;-54
2022/02/22 09:15:00;;;;;;;7.82;1.73;;;;;;;15.77;56.98;99670.81;4953824;28;20050;-51
2022/02/22 09:17:28;;;;;;;15.13;2.92;;;;;;;16.30;56.49;99694.47;4982209;28;21268;-48
2022/02/22 09:19:55;;;;;;;11.88;2.25;;;;;;;16.84;54.94;99704.91;4960185;28;20082;-53
2022/02/22 09:22:22;;;;;;;16.17;3.42;;;;;;;17.25;54.72;99714.03;4952248;28;20694;-52
2022/02/22 09:24:49;;;;;;;12.80;2.10;;;;;;;17.64;53.07;99726.56;4952077;28;20061;-56
2022/02/22 09:27:16;;;;;;;9.40;3.08;;;;;;;18.02;51.83;99746.94;4958513;28;20063;-53
2022/02/22 09:29:46;;;;;;;7.78;1.92;;;;;;;18.27;51.01;99734.69;4951936;28;20629;-54
2022/02/22 09:32:13;;;;;;;12.98;1.58;;;;;;;18.70;50.40;99738.19;4952202;28;20047;-52
2022/02/22 09:34:40;;;;;;;10.35;1.45;;;;;;;19.04;50.15;99729.81;4946608;28;20126;-52
2022/02/22 09:37:10;;;;;;;12.27;2.08;;;;;;;18.60;48.96;99747.34;4948167;28;20046;-53
2022/02/22 09:39:38;;;;;;;14.25;2.25;;;;;;;17.89;50.43;99750.94;4962720;28;20059;-49
2022/02/22 09:42:08;;;;;;;16.20;2.30;;;;;;;16.93;50.48;99743.81;4952827;28;20051;-53
2022/02/22 09:44:36;;;;;;;14.32;2.92;;;;;;;16.23;52.75;99750.44;4950250;28;20134;-52
2022/02/22 09:47:05;;;;;;;13.18;2.80;;;;;;;15.78;53.63;99755.22;4952386;28;20483;-50
2022/02/22 09:49:32;;;;;;;8.25;2.22;;;;;;;15.67;54.66;99743.34;4958096;28;20043;-49
2022/02/22 09:51:59;;;;;;;10.73;1.60;;;;;;;15.73;55.11;99744.03;4948512;28;20047;-54
2022/02/22 09:54:27;;;;;;;9.70;2.22;;;;;;;15.84;53.75;99734.16;4971215;28;20051;-50
2022/02/22 09:56:56;;;;;;;10.82;2.03;;;;;;;16.43;54.40;99732.41;4957428;28;20070;-57
2022/02/22 09:59:24;;;;;;;11.45;2.55;;;;;;;16.76;52.42;99717.41;4953617;28;20126;-50
2022/02/22 10:01:52;;;;;;;13.52;2.25;;;;;;;16.57;53.32;99728.47;4950001;28;20058;-54
2022/02/22 10:04:19;;;;;;;11.18;1.75;;;;;;;16.12;52.95;99722.91;4947270;28;20064;-54
2022/02/22 10:06:46;;;;;;;11.93;3.17;;;;;;;16.22;53.76;99701.72;4941001;28;20051;-56
2022/02/22 10:09:13;;;;;;;15.10;2.75;;;;;;;16.23;53.08;99708.63;4938446;28;20586;-52
2022/02/22 10:11:50;;;;;;;21.52;4.53;;;;;;;15.82;53.64;99704.63;4950665;28;20054;-52
2022/02/22 10:14:26;;;;;;;17.15;3.53;;;;;;;15.34;54.27;99704.25;4950031;28;20051;-50
2022/02/22 10:16:56;;;;;;;12.63;2.47;;;;;;;15.09;55.56;99699.72;4948503;28;20149;-55
2022/02/22 10:19:26;;;;;;;18.30;4.43;;;;;;;14.94;55.99;99701.00;4952825;28;20163;-53
2022/02/22 10:21:56;;;;;;;13.18;2.05;;;;;;;14.65;56.31;99697.34;4951682;28;20050;-55
2022/02/22 10:24:29;;;;;;;12.65;3.40;;;;;;;14.45;57.12;99692.63;4948651;28;20388;-58
2022/02/22 10:27:06;;;;;;;15.18;2.45;;;;;;;14.65;57.45;99690.38;4944435;28;20055;-55
2022/02/22 10:29:35;;;;;;;11.95;1.60;;;;;;;15.20;56.87;99686.34;4939065;28;20039;-51
2022/02/22 10:32:11;;;;;;;12.95;1.83;;;;;;;15.40;55.70;99691.03;4957388;28;20047;-56
2022/02/22 10:34:39;;;;;;;11.90;2.75;;;;;;;15.30;55.41;99684.34;4939418;28;20051;-55
2022/02/22 10:37:06;;;;;;;13.35;3.35;;;;;;;15.36;56.42;99689.41;4944021;28;20055;-51
2022/02/22 10:39:33;;;;;;;14.68;2.45;;;;;;;15.65;56.52;99699.91;4942323;28;20542;-50
2022/02/22 10:42:00;;;;;;;12.98;2.40;;;;;;;15.71;55.86;99680.59;4942593;28;20047;-53
2022/02/22 10:44:33;;;;;;;11.00;1.65;;;;;;;15.27;55.26;99679.25;4946110;28;20062;-54
2022/02/22 10:47:07;;;;;;;12.65;1.88;;;;;;;15.28;56.16;99678.34;4945416;28;20143;-55
2022/02/22 10:49:37;;;;;;;13.80;1.80;;;;;;;15.23;56.22;99685.44;4948979;28;20055;-51
2022/02/22 10:52:06;;;;;;;11.80;2.85;;;;;;;15.06;56.40;99684.13;4959227;28;20534;-55
2022/02/22 10:54:34;;;;;;;8.10;1.58;;;;;;;14.88;56.95;99670.72;4958677;28;20047;-56
2022/02/22 10:57:02;;;;;;;13.32;2.45;;;;;;;14.70;57.17;99686.81;4945277;28;20047;-48
2022/02/22 10:59:31;;;;;;;11.40;1.60;;;;;;;14.48;57.62;99695.16;4962128;28;20129;-47
2022/02/22 11:01:59;;;;;;;10.45;1.70;;;;;;;14.33;58.60;99689.44;4944153;28;20051;-51
2022/02/22 11:04:28;;;;;;;7.10;1.20;;;;;;;14.09;59.04;99696.91;4948251;28;20066;-55
2022/02/22 11:06:55;;;;;;;11.15;2.13;;;;;;;13.98;59.10;99696.28;4956467;28;20151;-49
2022/02/22 11:09:24;;;;;;;14.70;1.50;;;;;;;13.83;59.45;99700.97;4946674;28;20051;-55
2022/02/22 11:11:58;;;;;;;8.40;2.10;;;;;;;13.83;59.45;99700.97;4947058;28;20055;-55
2022/02/22 11:14:29;;;;;;;7.78;1.80;;;;;;;13.71;60.49;99690.84;4963016;28;20396;-53
2022/02/22 11:17:00;;;;;;;10.45;1.60;;;;;;;13.58;59.84;99695.44;4961467;28;20169;-49
2022/02/22 11:19:45;;;;;;;19.27;2.78;;;;;;;13.44;61.05;99698.31;4959912;28;20043;-55
2022/02/22 11:22:17;;;;;;;11.15;1.40;;;;;;;13.35;61.66;99700.16;4960945;28;20046;-54
2022/02/22 11:24:50;;;;;;;7.65;1.63;;;;;;;13.21;61.79;99707.41;4956670;28;20519;-49
2022/02/22 11:27:41;;;;;;;8.15;1.33;;;;;;;13.05;62.22;99710.31;4948871;28;20051;-53
2022/02/22 11:30:13;;;;;;;10.57;1.25;;;;;;;13.02;62.76;99702.56;4954143;28;20082;-49